Time;durP1;ratioP1;P1;durP2;ratioP2;P2;SDS_P1;SDS_P2;PMS_P1;PMS_P2;Temp;Humidity;BMP_temperature;BMP_pressure;BME280_temperature;BME280_humidity;BME280_pressure;Samples;Min_cycle;Max_cycle;Signal;HPM_P1;HPM_P2
2023/05/22 00:00:34;;;;;;;;;;;;;;;10.47;36.10;97924.66;6298027;28;19920;-75
2023/05/22 00:03:35;;;;;;;;;;;;;;;10.44;35.65;97926.56;6297338;28;19920;-74
2023/05/22 00:06:41;;;;;;;;;;;;;;;10.45;36.39;97928.28;6297678;28;20010;-74
2023/05/22 00:09:42;;;;;;;;;;;;;;;10.51;34.53;97928.00;6297503;28;20065;-74
2023/05/22 00:12:43;;;;;;;;;;;;;;;10.51;35.39;97933.25;6297156;28;19921;-74
2023/05/22 00:15:44;;;;;;;;;;;;;;;10.51;35.21;97934.09;6279038;28;20344;-75
2023/05/22 00:18:48;;;;;;;;;;;;;;;10.51;35.01;97933.25;6297447;28;19920;-75
2023/05/22 00:21:50;;;;;;;;;;;;;;;10.57;35.24;97932.94;6297091;28;20398;-74
2023/05/22 00:24:51;;;;;;;;;;;;;;;10.63;35.50;97943.19;6279504;28;20006;-75
2023/05/22 00:27:52;;;;;;;;;;;;;;;10.62;34.88;97936.22;6296790;28;19920;-74
2023/05/22 00:30:53;;;;;;;;;;;;;;;10.73;35.42;97949.72;6296511;28;19955;-74
2023/05/22 00:33:54;;;;;;;;;;;;;;;10.76;35.57;97943.47;6296432;28;19921;-74
2023/05/22 00:36:55;;;;;;;;;;;;;;;10.80;35.16;97939.72;6297132;28;20400;-74
2023/05/22 00:40:07;;;;;;;;;;;;;;;10.88;35.92;97942.00;6297092;28;20386;-74
2023/05/22 00:43:16;;;;;;;;;;;;;;;10.89;35.58;97939.28;6297100;28;19924;-74
2023/05/22 00:46:20;;;;;;;;;;;;;;;10.89;36.23;97951.59;6296076;28;19942;-74
2023/05/22 00:49:23;;;;;;;;;;;;;;;10.88;36.91;97952.53;6296448;28;19920;-74
2023/05/22 00:52:25;;;;;;;;;;;;;;;10.91;36.16;97949.75;6296170;28;20309;-74
2023/05/22 00:55:33;;;;;;;;;;;;;;;10.92;37.75;97949.66;6296055;28;20290;-74
2023/05/22 00:58:42;;;;;;;;;;;;;;;10.95;35.93;97948.66;6296916;28;19920;-74
2023/05/22 01:01:43;;;;;;;;;;;;;;;10.97;35.24;97957.34;6296382;28;19923;-74
2023/05/22 01:04:49;;;;;;;;;;;;;;;10.93;35.78;97950.53;6296382;28;20079;-74
2023/05/22 01:07:55;;;;;;;;;;;;;;;10.92;37.26;97954.06;6278442;28;19920;-74
2023/05/22 01:11:21;;;;;;;;;;;;;;;10.96;37.07;97955.66;6296350;28;19920;-74
2023/05/22 01:14:37;;;;;;;;;;;;;;;11.04;36.61;97961.41;6295202;28;19943;-74
2023/05/22 01:17:40;;;;;;;;;;;;;;;11.19;36.54;97955.34;6296419;28;19920;-74
2023/05/22 01:20:47;;;;;;;;;;;;;;;11.36;35.55;97959.78;6294839;28;19924;-74
2023/05/22 01:24:03;;;;;;;;;;;;;;;11.46;35.20;97954.88;6296412;28;19927;-75
2023/05/22 01:27:04;;;;;;;;;;;;;;;11.57;35.86;97962.25;6295472;28;19935;-74
2023/05/22 01:30:20;;;;;;;;;;;;;;;11.70;35.53;97968.59;6295046;28;19924;-75
2023/05/22 01:33:26;;;;;;;;;;;;;;;11.82;35.53;97972.38;6295273;28;19921;-74
2023/05/22 01:36:33;;;;;;;;;;;;;;;11.95;35.37;97973.47;6295180;28;19923;-74
2023/05/22 01:39:39;;;;;;;;;;;;;;;12.04;34.78;97978.25;6295904;28;19928;-75
2023/05/22 01:42:44;;;;;;;;;;;;;;;12.13;34.72;97983.03;6295668;28;19932;-74
2023/05/22 01:45:48;;;;;;;;;;;;;;;12.23;35.16;97978.13;6294493;28;19921;-74
2023/05/22 01:48:51;;;;;;;;;;;;;;;12.36;34.78;97986.22;6295299;28;19920;-74
2023/05/22 01:51:58;;;;;;;;;;;;;;;12.51;34.82;97984.53;6295356;28;20301;-74
2023/05/22 01:55:05;;;;;;;;;;;;;;;12.63;35.26;97980.38;6295274;28;20397;-75
2023/05/22 01:58:14;;;;;;;;;;;;;;;12.73;34.18;97982.41;6293964;28;19920;-75
2023/05/22 02:01:19;;;;;;;;;;;;;;;12.83;35.01;97977.47;6295300;28;20313;-75
2023/05/22 02:04:21;;;;;;;;;;;;;;;12.93;34.58;97989.19;6294657;28;19927;-75
2023/05/22 02:07:23;;;;;;;;;;;;;;;13.03;34.93;97992.19;6293835;28;19920;-74
2023/05/22 02:10:28;;;;;;;;;;;;;;;13.16;34.83;97985.28;6294673;28;19942;-73
2023/05/22 02:13:32;;;;;;;;;;;;;;;13.33;34.32;97981.66;6294599;28;19928;-75
2023/05/22 02:16:37;;;;;;;;;;;;;;;13.47;33.49;97989.66;6294523;28;20297;-75
2023/05/22 02:19:41;;;;;;;;;;;;;;;13.59;33.30;98000.47;6293720;28;19920;-74
2023/05/22 02:22:46;;;;;;;;;;;;;;;13.68;33.64;97998.09;6295034;28;19916;-74
2023/05/22 02:25:47;;;;;;;;;;;;;;;13.82;33.08;97999.94;6294817;28;19928;-74
2023/05/22 02:28:50;;;;;;;;;;;;;;;13.99;33.01;97998.91;6293957;28;19920;-74
2023/05/22 02:31:53;;;;;;;;;;;;;;;14.13;33.44;98008.66;6294765;28;19924;-75
2023/05/22 02:34:59;;;;;;;;;;;;;;;14.28;33.64;98002.41;6294803;28;19920;-74
2023/05/22 02:38:00;;;;;;;;;;;;;;;14.36;33.38;98000.16;6294699;28;19916;-74
2023/05/22 02:41:03;;;;;;;;;;;;;;;14.49;33.15;98010.84;6294289;28;19920;-74
2023/05/22 02:44:07;;;;;;;;;;;;;;;14.62;32.72;98005.63;6294770;28;19920;-74
2023/05/22 02:47:08;;;;;;;;;;;;;;;14.77;32.57;98011.75;6293894;28;19920;-74
2023/05/22 02:50:09;;;;;;;;;;;;;;;14.86;32.87;98013.84;6294083;28;20019;-74
2023/05/22 02:53:14;;;;;;;;;;;;;;;14.99;32.48;98011.22;6294513;28;20405;-74
2023/05/22 02:56:20;;;;;;;;;;;;;;;15.15;32.70;98019.91;6294396;28;19921;-75
2023/05/22 02:59:27;;;;;;;;;;;;;;;15.34;32.22;98023.97;6294443;28;20210;-75
2023/05/22 03:02:33;;;;;;;;;;;;;;;15.44;32.41;98033.03;6294407;28;20492;-74
2023/05/22 03:05:39;;;;;;;;;;;;;;;15.59;32.08;98034.66;6294342;28;19920;-74
2023/05/22 03:08:42;;;;;;;;;;;;;;;15.75;31.89;98039.00;6293615;28;20365;-74
2023/05/22 03:11:43;;;;;;;;;;;;;;;15.91;32.00;98035.22;6294181;28;19924;-73
2023/05/22 03:14:44;;;;;;;;;;;;;;;16.07;31.63;98042.94;6275443;28;19926;-75
2023/05/22 03:17:45;;;;;;;;;;;;;;;16.22;31.41;98049.03;6295926;28;19927;-74
2023/05/22 03:20:46;;;;;;;;;;;;;;;16.36;31.41;98040.97;6281478;28;20018;-74
2023/05/22 03:23:52;;;;;;;;;;;;;;;16.51;31.28;98033.72;6298751;28;19920;-74
2023/05/22 03:26:53;;;;;;;;;;;;;;;16.67;32.02;98036.13;6298161;28;19932;-74
2023/05/22 03:29:57;;;;;;;;;;;;;;;16.83;31.27;98033.25;6297223;28;19927;-74
2023/05/22 03:33:00;;;;;;;;;;;;;;;17.01;30.85;98031.94;6298981;28;20281;-74
2023/05/22 03:36:04;;;;;;;;;;;;;;;17.18;30.82;98037.81;6298550;28;20402;-74
2023/05/22 03:39:05;;;;;;;;;;;;;;;17.30;30.94;98031.63;6297670;28;19920;-74
2023/05/22 03:42:09;;;;;;;;;;;;;;;17.50;30.32;98038.97;6298303;28;20393;-75
2023/05/22 03:45:13;;;;;;;;;;;;;;;17.67;29.93;98027.06;6298045;28;19982;-74
2023/05/22 03:48:16;;;;;;;;;;;;;;;17.86;29.84;98031.88;6297906;28;20456;-74
2023/05/22 03:51:17;;;;;;;;;;;;;;;18.04;29.50;98031.44;6297649;28;19920;-75
2023/05/22 03:54:18;;;;;;;;;;;;;;;18.19;29.37;98030.25;6297468;28;20183;-75
2023/05/22 03:57:20;;;;;;;;;;;;;;;18.37;29.26;98019.97;6297230;28;19920;-74
2023/05/22 04:00:24;;;;;;;;;;;;;;;18.55;29.02;98031.00;6297996;28;19920;-74
2023/05/22 04:03:26;;;;;;;;;;;;;;;18.77;28.35;98036.38;6296995;28;20007;-75
2023/05/22 04:06:31;;;;;;;;;;;;;;;18.84;28.38;98032.22;6298114;28;20353;-74
2023/05/22 04:09:35;;;;;;;;;;;;;;;19.00;28.05;98041.69;6297642;28;19920;-75
2023/05/22 04:12:38;;;;;;;;;;;;;;;19.22;27.72;98046.09;6297651;28;19920;-75
2023/05/22 04:15:45;;;;;;;;;;;;;;;19.43;27.18;98038.19;6297237;28;20011;-74
2023/05/22 04:18:46;;;;;;;;;;;;;;;19.55;27.23;98033.63;6297137;28;19966;-74
2023/05/22 04:21:51;;;;;;;;;;;;;;;19.77;27.34;98046.94;6297624;28;19920;-76
2023/05/22 04:24:55;;;;;;;;;;;;;;;19.99;27.09;98029.94;6297116;28;19927;-74
2023/05/22 04:28:01;;;;;;;;;;;;;;;20.26;26.82;98041.91;6297282;28;19920;-74
2023/05/22 04:31:05;;;;;;;;;;;;;;;20.62;26.28;98040.59;6296179;28;19928;-74
2023/05/22 04:34:13;;;;;;;;;;;;;;;21.07;25.22;98037.50;6297075;28;19920;-75
2023/05/22 04:37:14;;;;;;;;;;;;;;;22.97;23.41;98035.13;6297141;28;19927;-74
2023/05/22 04:40:15;;;;;;;;;;;;;;;25.56;21.14;98035.47;6295712;28;19920;-74
2023/05/22 04:43:17;;;;;;;;;;;;;;;28.11;19.17;98045.38;6296265;28;19920;-74
2023/05/22 04:46:19;;;;;;;;;;;;;;;30.63;17.12;98044.06;6296662;28;20007;-74
2023/05/22 04:49:20;;;;;;;;;;;;;;;32.65;16.18;98052.47;6296585;28;19920;-74
2023/05/22 04:52:21;;;;;;;;;;;;;;;34.64;14.26;98055.28;6278520;28;19927;-74
2023/05/22 04:55:22;;;;;;;;;;;;;;;36.53;11.65;98049.69;6296571;28;20301;-75
2023/05/22 04:58:28;;;;;;;;;;;;;;;38.49;12.17;98060.81;6296399;28;19920;-75
2023/05/22 05:01:33;;;;;;;;;;;;;;;39.84;13.14;98061.31;6296253;28;19924;-74
2023/05/22 05:04:37;;;;;;;;;;;;;;;41.47;11.10;98055.31;6277681;28;20069;-74
2023/05/22 05:07:38;;;;;;;;;;;;;;;43.20;11.57;98054.66;6295495;28;19920;-74
2023/05/22 05:10:39;;;;;;;;;;;;;;;44.56;10.78;98057.97;6296101;28;20218;-74
2023/05/22 05:13:43;;;;;;;;;;;;;;;45.66;8.02;98053.44;6295368;28;20077;-75
2023/05/22 05:16:50;;;;;;;;;;;;;;;46.53;8.87;98057.69;6295682;28;19920;-74
2023/05/22 05:19:53;;;;;;;;;;;;;;;47.60;7.61;98054.81;6295442;28;19998;-75
2023/05/22 05:22:57;;;;;;;;;;;;;;;48.59;8.47;98059.78;6277064;28;19921;-74
2023/05/22 05:25:58;;;;;;;;;;;;;;;48.98;8.39;98054.25;6295166;28;20419;-75
2023/05/22 05:29:03;;;;;;;;;;;;;;;49.51;7.80;98057.22;6295795;28;19947;-74
2023/05/22 05:32:04;;;;;;;;;;;;;;;49.82;7.63;98054.31;6294399;28;19923;-75
2023/05/22 05:35:09;;;;;;;;;;;;;;;49.77;6.74;98049.72;6295913;28;20325;-75
2023/05/22 05:38:15;;;;;;;;;;;;;;;50.32;6.96;98046.28;6295255;28;19978;-74
2023/05/22 05:41:20;;;;;;;;;;;;;;;50.16;5.19;98039.53;6294919;28;19920;-76
2023/05/22 05:44:24;;;;;;;;;;;;;;;50.33;5.17;98042.31;6295661;28;20242;-74
2023/05/22 05:47:29;;;;;;;;;;;;;;;50.82;6.04;98052.44;6295097;28;19970;-75
2023/05/22 05:50:33;;;;;;;;;;;;;;;51.51;5.01;98054.13;6294511;28;20011;-75
2023/05/22 05:53:36;;;;;;;;;;;;;;;52.02;4.89;98038.94;6295469;28;19921;-75
2023/05/22 05:56:40;;;;;;;;;;;;;;;52.19;4.52;98034.31;6294841;28;19926;-74
2023/05/22 05:59:42;;;;;;;;;;;;;;;52.23;4.46;98032.44;6295391;28;19920;-75
2023/05/22 06:02:44;;;;;;;;;;;;;;;52.80;4.44;98040.13;6277619;28;19920;-73
2023/05/22 06:05:49;;;;;;;;;;;;;;;53.94;4.43;98042.22;6294364;28;20022;-75
2023/05/22 06:08:51;;;;;;;;;;;;;;;54.82;4.39;98031.81;6293563;28;19920;-74
2023/05/22 06:11:54;;;;;;;;;;;;;;;55.68;3.33;98027.47;6294058;28;19921;-75
2023/05/22 06:14:56;;;;;;;;;;;;;;;56.27;3.23;98026.31;6294500;28;19920;-74
2023/05/22 06:17:58;;;;;;;;;;;;;;;55.28;2.60;98015.28;6293816;28;20020;-74
2023/05/22 06:21:02;;;;;;;;;;;;;;;54.33;3.34;98020.00;6294253;28;19926;-74
2023/05/22 06:24:09;;;;;;;;;;;;;;;54.44;3.50;98009.84;6294822;28;20097;-74
2023/05/22 06:27:15;;;;;;;;;;;;;;;55.76;3.28;98023.63;6294747;28;19926;-74
2023/05/22 06:30:18;;;;;;;;;;;;;;;56.70;1.62;98013.00;6294535;28;19928;-74
2023/05/22 06:33:22;;;;;;;;;;;;;;;56.75;3.09;98012.69;6295669;28;20318;-74
2023/05/22 06:36:23;;;;;;;;;;;;;;;57.32;3.06;98010.78;6297856;28;20077;-74
2023/05/22 06:39:26;;;;;;;;;;;;;;;57.81;2.84;98016.75;6306526;28;19920;-73
2023/05/22 06:42:31;;;;;;;;;;;;;;;57.98;2.62;98017.00;6295911;28;19932;-74
2023/05/22 06:45:38;;;;;;;;;;;;;;;57.94;2.01;98009.66;6313790;28;19922;-73
2023/05/22 06:48:41;;;;;;;;;;;;;;;57.64;2.63;98024.59;6312258;28;19933;-74
2023/05/22 06:51:44;;;;;;;;;;;;;;;57.41;2.18;98015.38;6294708;28;20432;-74
2023/05/22 06:54:48;;;;;;;;;;;;;;;55.74;2.22;98015.50;6316315;28;19920;-74
2023/05/22 06:57:51;;;;;;;;;;;;;;;55.53;2.63;98004.56;6310923;28;19916;-74
2023/05/22 07:00:54;;;;;;;;;;;;;;;57.02;1.95;97992.91;6313604;28;20325;-74
2023/05/22 07:03:59;;;;;;;;;;;;;;;57.83;1.83;98011.53;6317010;28;19920;-73
2023/05/22 07:07:01;;;;;;;;;;;;;;;58.00;1.49;97999.59;6315728;28;19969;-75
2023/05/22 07:10:05;;;;;;;;;;;;;;;57.93;1.78;98010.84;6282945;28;19924;-74
2023/05/22 07:13:11;;;;;;;;;;;;;;;58.06;1.78;98003.72;6285389;28;19988;-74
2023/05/22 07:16:14;;;;;;;;;;;;;;;57.61;1.71;97997.06;6300281;28;19924;-75
2023/05/22 07:19:18;;;;;;;;;;;;;;;58.20;2.01;97994.59;6320368;28;19921;-74
2023/05/22 07:22:21;;;;;;;;;;;;;;;58.99;1.34;97990.50;6321962;28;20015;-75
2023/05/22 07:25:25;;;;;;;;;;;;;;;58.04;1.31;97991.94;6301482;28;19950;-75
2023/05/22 07:28:28;;;;;;;;;;;;;;;57.65;1.41;97986.63;6315385;28;20011;-74
2023/05/22 07:31:33;;;;;;;;;;;;;;;58.41;1.19;97991.19;6295928;28;20297;-74
2023/05/22 07:34:36;;;;;;;;;;;;;;;59.15;1.68;97997.91;6297485;28;19947;-74
2023/05/22 07:37:40;;;;;;;;;;;;;;;58.98;1.34;97994.56;6282683;28;19927;-74
2023/05/22 07:40:42;;;;;;;;;;;;;;;58.57;1.75;97991.72;6300570;28;19926;-74
2023/05/22 07:43:45;;;;;;;;;;;;;;;58.34;1.28;97993.91;6299901;28;19960;-74
2023/05/22 07:46:48;;;;;;;;;;;;;;;58.24;1.73;97989.78;6863528;22;19923;-74
2023/05/22 07:49:51;;;;;;;;;;;;;;;58.06;1.69;97983.88;6291535;28;19920;-74
2023/05/22 07:52:54;;;;;;;;;;;;;;;58.69;1.14;97987.81;6293210;28;19994;-73
2023/05/22 07:55:57;;;;;;;;;;;;;;;59.18;0.92;97994.28;6294102;28;19960;-75
2023/05/22 07:59:01;;;;;;;;;;;;;;;58.90;1.16;97992.84;6276238;28;20308;-74
2023/05/22 08:02:04;;;;;;;;;;;;;;;59.00;0.91;97991.31;6260333;28;19952;-74
2023/05/22 08:05:07;;;;;;;;;;;;;;;58.55;1.06;97982.81;6293543;28;19920;-73
2023/05/22 08:08:10;;;;;;;;;;;;;;;59.18;0.95;97991.44;6259149;28;19984;-74
2023/05/22 08:11:13;;;;;;;;;;;;;;;58.29;1.67;97997.91;6274066;28;19901;-73
2023/05/22 08:14:17;;;;;;;;;;;;;;;57.68;1.33;97974.53;6272141;28;19920;-74
2023/05/22 08:17:20;;;;;;;;;;;;;;;57.70;1.09;97977.78;6283410;28;19927;-73
2023/05/22 08:20:23;;;;;;;;;;;;;;;56.28;0.94;97970.63;6275657;28;19921;-74
2023/05/22 08:23:26;;;;;;;;;;;;;;;55.08;2.09;97966.41;6238544;28;19927;-74
2023/05/22 08:26:29;;;;;;;;;;;;;;;55.33;1.39;97974.69;6238774;28;20293;-74
2023/05/22 08:29:32;;;;;;;;;;;;;;;55.44;1.79;97967.28;6272483;28;20011;-74
2023/05/22 08:32:34;;;;;;;;;;;;;;;56.25;1.80;97966.53;6272219;28;19920;-73
2023/05/22 08:35:39;;;;;;;;;;;;;;;56.16;1.47;97971.59;6254924;28;19927;-74
2023/05/22 08:38:41;;;;;;;;;;;;;;;56.46;1.42;97954.81;6254085;28;19927;-74
2023/05/22 08:41:46;;;;;;;;;;;;;;;56.68;1.25;97961.66;6272383;28;20274;-74
2023/05/22 08:44:49;;;;;;;;;;;;;;;56.09;1.63;97957.31;6272163;28;19920;-74
2023/05/22 08:47:56;;;;;;;;;;;;;;;54.69;1.78;97963.44;6272226;28;19928;-74
2023/05/22 08:51:03;;;;;;;;;;;;;;;53.71;1.98;97951.84;6272085;28;20414;-74
2023/05/22 08:54:08;;;;;;;;;;;;;;;53.73;1.57;97955.94;6272274;28;19950;-74
2023/05/22 08:57:12;;;;;;;;;;;;;;;53.51;2.07;97939.59;6254269;28;20294;-74
2023/05/22 09:00:14;;;;;;;;;;;;;;;53.57;2.20;97944.63;6254054;28;20014;-75
2023/05/22 09:03:17;;;;;;;;;;;;;;;54.14;1.67;97931.38;6237978;28;19927;-73
2023/05/22 09:06:18;;;;;;;;;;;;;;;53.85;1.66;97941.03;6237662;28;19920;-74
2023/05/22 09:09:20;;;;;;;;;;;;;;;52.78;2.00;97927.25;6271599;28;19920;-72
2023/05/22 09:12:24;;;;;;;;;;;;;;;52.59;2.33;97939.03;6255008;28;19939;-74
2023/05/22 09:15:28;;;;;;;;;;;;;;;53.02;1.99;97940.50;6253094;28;19917;-75
2023/05/22 09:18:32;;;;;;;;;;;;;;;53.63;1.95;97936.75;6271597;28;19927;-74
2023/05/22 09:21:36;;;;;;;;;;;;;;;53.18;1.78;97935.78;6254261;28;19921;-75
2023/05/22 09:24:41;;;;;;;;;;;;;;;52.61;1.71;97930.28;6271107;28;19916;-74
2023/05/22 09:27:45;;;;;;;;;;;;;;;51.60;2.14;97921.03;6253518;28;19947;-74
2023/05/22 09:30:48;;;;;;;;;;;;;;;50.79;2.41;97930.63;6271331;28;20019;-74
2023/05/22 09:33:53;;;;;;;;;;;;;;;50.14;2.44;97927.09;6271275;28;20282;-74
2023/05/22 09:37:02;;;;;;;;;;;;;;;49.64;2.79;97931.25;6253200;28;19921;-74
2023/05/22 09:40:09;;;;;;;;;;;;;;;50.42;2.59;97932.28;6253826;28;19925;-75
2023/05/22 09:43:16;;;;;;;;;;;;;;;51.01;2.48;97926.75;6253081;28;20504;-74
2023/05/22 09:46:19;;;;;;;;;;;;;;;51.37;2.28;97922.56;6253266;28;20293;-75
2023/05/22 09:49:21;;;;;;;;;;;;;;;51.01;2.35;97914.72;6271138;28;20534;-74
2023/05/22 09:52:22;;;;;;;;;;;;;;;50.46;2.36;97922.06;6235765;28;20070;-73
2023/05/22 09:55:26;;;;;;;;;;;;;;;49.70;2.83;97917.91;6252907;28;19925;-74
2023/05/22 09:58:30;;;;;;;;;;;;;;;49.33;2.94;97920.19;6236746;28;19951;-74
2023/05/22 10:01:34;;;;;;;;;;;;;;;49.19;2.76;97916.69;6253490;28;20316;-75
2023/05/22 10:04:40;;;;;;;;;;;;;;;48.90;2.82;97898.56;6271113;28;19921;-73
2023/05/22 10:07:49;;;;;;;;;;;;;;;49.30;2.95;97906.88;6252842;28;20023;-74
2023/05/22 10:10:54;;;;;;;;;;;;;;;49.49;2.79;97905.69;6252511;28;19952;-73
2023/05/22 10:13:59;;;;;;;;;;;;;;;49.49;2.97;97905.69;6253207;28;20384;-74
2023/05/22 10:17:05;;;;;;;;;;;;;;;49.17;2.75;97900.25;6269977;28;19916;-74
2023/05/22 10:20:07;;;;;;;;;;;;;;;48.98;2.86;97902.53;6236153;28;19920;-74
2023/05/22 10:23:10;;;;;;;;;;;;;;;48.94;2.88;97899.56;6270585;28;20385;-74
2023/05/22 10:26:12;;;;;;;;;;;;;;;48.71;3.52;97886.81;6270103;28;19917;-74
2023/05/22 10:29:17;;;;;;;;;;;;;;;47.96;3.60;97894.16;6268304;28;19920;-74
2023/05/22 10:32:29;;;;;;;;;;;;;;;46.92;3.90;97896.84;6270162;28;20015;-74
2023/05/22 10:35:51;;;;;;;;;;;;;;;46.80;3.67;97891.81;6268822;28;19920;-73
2023/05/22 10:38:56;;;;;;;;;;;;;;;44.39;4.33;97897.47;6252678;28;19965;-74
2023/05/22 10:42:02;;;;;;;;;;;;;;;43.39;4.88;97890.53;6236360;28;19916;-74
2023/05/22 10:45:09;;;;;;;;;;;;;;;43.96;4.79;97888.19;6269617;28;20423;-74
2023/05/22 10:48:14;;;;;;;;;;;;;;;44.64;4.41;97892.75;6269500;28;19921;-74
2023/05/22 10:51:20;;;;;;;;;;;;;;;45.10;4.35;97884.69;6251898;28;20070;-73
2023/05/22 10:54:36;;;;;;;;;;;;;;;44.96;4.41;97895.69;6235612;28;19921;-74
2023/05/22 10:57:47;;;;;;;;;;;;;;;44.45;4.51;97882.44;6269659;28;20019;-73
2023/05/22 11:01:06;;;;;;;;;;;;;;;44.04;4.59;97882.00;6269404;28;20027;-74
2023/05/22 11:04:07;;;;;;;;;;;;;;;43.99;4.79;97888.41;6269520;28;19955;-74
2023/05/22 11:07:15;;;;;;;;;;;;;;;43.20;4.69;97869.06;6269618;28;19932;-76
2023/05/22 11:10:25;;;;;;;;;;;;;;;42.67;5.13;97871.50;6252259;28;20393;-73
2023/05/22 11:13:27;;;;;;;;;;;;;;;42.29;5.43;97862.75;6251876;28;19928;-73
2023/05/22 11:16:32;;;;;;;;;;;;;;;41.89;5.44;97866.41;6269459;28;19925;-74
2023/05/22 11:19:34;;;;;;;;;;;;;;;41.46;5.51;97869.41;6234957;28;19928;-75
2023/05/22 11:22:40;;;;;;;;;;;;;;;41.20;5.64;97867.75;6251273;28;19920;-73
2023/05/22 11:25:43;;;;;;;;;;;;;;;41.30;5.75;97862.22;6251962;28;19924;-74
2023/05/22 11:28:52;;;;;;;;;;;;;;;41.36;5.62;97858.38;6269167;28;19921;-74
2023/05/22 11:31:54;;;;;;;;;;;;;;;41.07;5.75;97852.53;6269203;28;19927;-75
2023/05/22 11:35:04;;;;;;;;;;;;;;;40.13;6.28;97855.09;6252181;28;19928;-74
2023/05/22 11:38:06;;;;;;;;;;;;;;;38.52;6.53;97849.38;6235415;28;19924;-74
2023/05/22 11:41:08;;;;;;;;;;;;;;;37.89;6.83;97842.44;6254890;28;19921;-76
2023/05/22 11:44:10;;;;;;;;;;;;;;;37.76;7.11;97838.09;6256009;28;19927;-75
2023/05/22 11:47:13;;;;;;;;;;;;;;;37.91;7.02;97841.09;6239332;28;19946;-74
2023/05/22 11:50:15;;;;;;;;;;;;;;;37.87;7.11;97833.59;6273229;28;19921;-75
2023/05/22 11:53:19;;;;;;;;;;;;;;;37.84;6.67;97840.41;6272983;28;19921;-75
2023/05/22 11:56:24;;;;;;;;;;;;;;;37.76;7.17;97843.59;6256021;28;19927;-74
2023/05/22 11:59:25;;;;;;;;;;;;;;;37.58;7.31;97841.94;6255221;28;19921;-75
2023/05/22 12:02:29;;;;;;;;;;;;;;;37.16;6.93;97849.69;6273253;28;19921;-75
2023/05/22 12:05:33;;;;;;;;;;;;;;;36.86;7.40;97845.28;6272749;28;20019;-75
2023/05/22 12:08:37;;;;;;;;;;;;;;;36.77;7.69;97842.06;6272719;28;19921;-75
2023/05/22 12:11:38;;;;;;;;;;;;;;;36.72;7.54;97838.41;6272334;28;20298;-74
2023/05/22 12:14:42;;;;;;;;;;;;;;;36.56;7.82;97843.59;6271590;28;19927;-74
2023/05/22 12:17:43;;;;;;;;;;;;;;;36.13;7.79;97842.09;6272424;28;20282;-74
2023/05/22 12:20:50;;;;;;;;;;;;;;;35.92;7.68;97845.41;6271504;28;19921;-76
2023/05/22 12:23:56;;;;;;;;;;;;;;;35.90;7.85;97842.91;6272538;28;19928;-75
2023/05/22 12:27:00;;;;;;;;;;;;;;;35.66;7.99;97836.59;6272538;28;19928;-75
2023/05/22 12:30:07;;;;;;;;;;;;;;;35.34;8.09;97835.22;6271026;28;19927;-76
2023/05/22 12:33:13;;;;;;;;;;;;;;;35.17;8.24;97827.69;6272231;28;20313;-75
2023/05/22 12:36:17;;;;;;;;;;;;;;;35.21;8.31;97828.88;6272555;28;20329;-74
2023/05/22 12:39:18;;;;;;;;;;;;;;;34.75;8.46;97824.91;6271315;28;19927;-75
2023/05/22 12:42:20;;;;;;;;;;;;;;;33.95;8.84;97824.97;6271018;28;20258;-74
2023/05/22 12:45:23;;;;;;;;;;;;;;;33.28;8.97;97830.13;6271767;28;19920;-76
2023/05/22 12:48:24;;;;;;;;;;;;;;;32.81;9.41;97832.28;6270756;28;20404;-75
2023/05/22 12:51:30;;;;;;;;;;;;;;;32.36;9.43;97826.84;6270826;28;19920;-75
2023/05/22 12:54:34;;;;;;;;;;;;;;;31.71;9.91;97819.41;6271381;28;20211;-74
2023/05/22 12:57:35;;;;;;;;;;;;;;;30.76;10.32;97831.41;6271078;28;20007;-75
2023/05/22 13:00:36;;;;;;;;;;;;;;;30.11;10.64;97822.75;6270728;28;19920;-76
2023/05/22 13:03:40;;;;;;;;;;;;;;;29.62;11.08;97829.09;6271548;28;19921;-76
2023/05/22 13:06:43;;;;;;;;;;;;;;;29.41;10.71;97828.09;6270859;28;19920;-75
2023/05/22 13:09:44;;;;;;;;;;;;;;;29.51;10.77;97825.88;6271094;28;19927;-76
2023/05/22 13:12:47;;;;;;;;;;;;;;;29.62;10.76;97823.69;6271199;28;20019;-75
2023/05/22 13:15:55;;;;;;;;;;;;;;;29.66;10.59;97819.56;6271119;28;19921;-75
2023/05/22 13:18:59;;;;;;;;;;;;;;;29.73;10.80;97828.59;6271233;28;20377;-75
2023/05/22 13:22:03;;;;;;;;;;;;;;;29.69;10.85;97835.44;6271175;28;19994;-75
2023/05/22 13:25:08;;;;;;;;;;;;;;;29.58;10.81;97836.78;6252337;28;20056;-75
2023/05/22 13:28:12;;;;;;;;;;;;;;;29.49;10.76;97830.66;6253056;28;19921;-75
2023/05/22 13:31:13;;;;;;;;;;;;;;;29.43;11.02;97826.03;6270413;28;19935;-74
2023/05/22 13:34:14;;;;;;;;;;;;;;;29.35;10.80;97822.63;6269654;28;20381;-76
2023/05/22 13:37:18;;;;;;;;;;;;;;;29.15;10.99;97823.28;6270520;28;19921;-75
2023/05/22 13:40:23;;;;;;;;;;;;;;;28.98;11.02;97821.81;6270638;28;20327;-73
2023/05/22 13:43:24;;;;;;;;;;;;;;;28.84;11.45;97834.41;6269602;28;20393;-75
2023/05/22 13:46:25;;;;;;;;;;;;;;;28.65;11.53;97828.59;6270060;28;19928;-75
2023/05/22 13:49:31;;;;;;;;;;;;;;;28.54;11.58;97833.66;6270093;28;19921;-74
2023/05/22 13:52:32;;;;;;;;;;;;;;;28.49;11.66;97845.03;6270235;28;19927;-76
2023/05/22 13:55:33;;;;;;;;;;;;;;;28.35;11.80;97835.06;6269975;28;20019;-75
2023/05/22 13:58:34;;;;;;;;;;;;;;;28.18;11.99;97832.53;6269270;28;20343;-75
2023/05/22 14:01:36;;;;;;;;;;;;;;;27.97;12.09;97837.88;6268998;28;20222;-75
2023/05/22 14:04:37;;;;;;;;;;;;;;;27.61;12.32;97835.00;6268488;28;20374;-75
2023/05/22 14:07:43;;;;;;;;;;;;;;;27.33;12.50;97840.16;6270076;28;19920;-75
2023/05/22 14:10:48;;;;;;;;;;;;;;;27.05;12.39;97829.88;6269976;28;20003;-74
2023/05/22 14:13:52;;;;;;;;;;;;;;;26.84;12.63;97828.69;6269944;28;19920;-75
2023/05/22 14:16:56;;;;;;;;;;;;;;;26.58;12.75;97834.44;6269640;28;19920;-75
2023/05/22 14:19:59;;;;;;;;;;;;;;;26.31;13.17;97835.69;6269571;28;19920;-75
2023/05/22 14:23:02;;;;;;;;;;;;;;;26.08;12.99;97837.50;6269195;28;19920;-74
2023/05/22 14:26:08;;;;;;;;;;;;;;;25.85;13.38;97838.22;6269825;28;20390;-75
2023/05/22 14:29:10;;;;;;;;;;;;;;;25.62;13.15;97831.81;6270043;28;20282;-75
2023/05/22 14:32:16;;;;;;;;;;;;;;;25.41;13.25;97840.44;6269500;28;19986;-74
2023/05/22 14:35:17;;;;;;;;;;;;;;;25.22;13.63;97841.63;6269447;28;19921;-75
2023/05/22 14:38:21;;;;;;;;;;;;;;;25.03;13.23;97843.63;6269577;28;19916;-75
2023/05/22 14:41:22;;;;;;;;;;;;;;;24.91;14.03;97839.59;6269381;28;19920;-76
2023/05/22 14:44:23;;;;;;;;;;;;;;;24.68;14.11;97850.13;6269538;28;19942;-75
2023/05/22 14:47:25;;;;;;;;;;;;;;;24.48;14.25;97844.19;6268885;28;19932;-75
2023/05/22 14:50:29;;;;;;;;;;;;;;;24.39;13.95;97845.13;6269538;28;20438;-75
2023/05/22 14:53:30;;;;;;;;;;;;;;;24.30;14.28;97854.19;6270638;28;20378;-75
2023/05/22 14:56:33;;;;;;;;;;;;;;;24.22;14.38;97854.16;6270774;28;19997;-75
2023/05/22 14:59:38;;;;;;;;;;;;;;;24.16;14.54;97856.47;6270324;28;19921;-74
2023/05/22 15:02:42;;;;;;;;;;;;;;;24.08;14.58;97853.75;6269379;28;19921;-75
2023/05/22 15:05:43;;;;;;;;;;;;;;;23.99;14.34;97860.09;6269303;28;19935;-74
2023/05/22 15:08:45;;;;;;;;;;;;;;;23.97;15.09;97860.22;6268559;28;19927;-74
2023/05/22 15:11:49;;;;;;;;;;;;;;;23.92;14.96;97864.41;6269352;28;20022;-75
2023/05/22 15:14:55;;;;;;;;;;;;;;;23.89;14.83;97864.72;6272798;28;19921;-74
2023/05/22 15:18:01;;;;;;;;;;;;;;;23.77;15.25;97872.22;6274166;28;20332;-75
2023/05/22 15:21:02;;;;;;;;;;;;;;;23.59;15.25;97874.94;6273416;28;20445;-75
2023/05/22 15:24:06;;;;;;;;;;;;;;;23.42;15.17;97881.19;6274021;28;20309;-74
2023/05/22 15:27:12;;;;;;;;;;;;;;;23.23;15.67;97871.44;6257423;28;19920;-75
2023/05/22 15:30:18;;;;;;;;;;;;;;;23.07;15.70;97880.19;6274747;28;19924;-74
2023/05/22 15:33:21;;;;;;;;;;;;;;;22.91;15.82;97886.22;6274390;28;20007;-76
2023/05/22 15:36:26;;;;;;;;;;;;;;;22.73;16.14;97883.53;6274085;28;19920;-75
2023/05/22 15:39:30;;;;;;;;;;;;;;;22.53;15.89;97884.63;6272548;28;20373;-74
2023/05/22 15:42:31;;;;;;;;;;;;;;;22.37;16.21;97883.44;6272978;28;19996;-75
2023/05/22 15:45:32;;;;;;;;;;;;;;;22.21;16.67;97888.59;6272791;28;20304;-76
2023/05/22 15:48:36;;;;;;;;;;;;;;;22.07;16.46;97891.72;6273350;28;19921;-74
2023/05/22 15:51:37;;;;;;;;;;;;;;;21.96;16.80;97885.56;6272961;28;19927;-74
2023/05/22 15:54:41;;;;;;;;;;;;;;;21.79;17.10;97894.34;6255865;28;19917;-75
2023/05/22 15:57:42;;;;;;;;;;;;;;;21.61;17.15;97896.94;6273313;28;20567;-75
2023/05/22 16:00:46;;;;;;;;;;;;;;;21.51;17.17;97891.63;6272177;28;20003;-74
2023/05/22 16:03:51;;;;;;;;;;;;;;;21.37;17.65;97896.53;6272944;28;20389;-76